Latest Weather Observations for Adelaide

IDS60801

Issued at 9:05 pm CDT Friday 31 October 2014 (issued every 30 minutes, with the page automatically refreshed every 10 minutes)

About weather observations | Map of weather stations | Latest weather observations for SA | Other Formats
Station Details ID: 023090 Name: KENT TOWN Lat: -34.92 Lon: 138.62 Height: 48.0 m
Data from the previous 72 hours. | See also: Recent months at Adelaide
Date/Time
CDT
Temp
°C
App
Temp
°C
Dew
Point
Rel
Hum
%
Delta-T
°C
Wind Press
QNH
hPa
Press
MSL
hPa
Rain
since 9 am
mm
Dir
 
Spd
km/h
Gust
km/h
Spd
kts
Gust
kts
31/09:00pm 18.1 15.6 12.2 68 3.3 SW 17 32 9 17 1006.2 1006.2 0.0
31/08:30pm 18.0 14.8 13.0 72 2.8 SW 22 35 12 19 1005.6 - 0.0
31/08:00pm 18.5 15.8 13.4 72 2.9 WSW 20 32 11 17 1004.9 - 0.0
31/07:30pm 18.4 16.3 14.6 78 2.2 SW 19 30 10 16 1003.4 - 0.0
31/07:00pm 19.0 16.2 14.4 74 2.7 SW 22 39 12 21 1002.8 - 0.0
31/06:30pm 21.9 17.5 11.8 52 5.7 WSW 26 39 14 21 1002.4 - 0.0
31/06:00pm 23.9 20.4 10.2 42 7.6 SSW 19 33 10 18 1001.6 1001.6 0.0
31/05:30pm 25.2 21.3 9.4 36 8.6 WSW 20 33 11 18 1001.0 - 0.0
31/05:00pm 26.5 21.7 8.8 32 9.7 SW 24 39 13 21 1000.8 - 0.0
31/04:30pm 26.3 20.5 4.4 24 11.0 SSW 24 41 13 22 1000.6 - 0.0
31/04:19pm 25.4 19.1 5.9 28 10.0 SW 28 46 15 25 1000.9 - 0.0
31/04:00pm 28.6 23.1 5.8 23 11.9 WSW 24 37 13 20 1000.6 - 0.0
31/03:30pm 31.8 26.9 4.3 17 14.3 WSW 19 28 10 15 1000.4 - 0.0
31/03:00pm 32.4 28.0 4.5 17 14.7 WSW 17 28 9 15 1000.8 1000.8 0.0
31/02:30pm 33.2 27.6 3.7 15 15.3 WSW 22 32 12 17 1001.4 - 0.0
31/02:00pm 33.7 27.8 1.8 13 16.1 W 22 41 12 22 1001.6 - 0.0
31/01:48pm 33.6 26.5 1.5 13 16.1 WNW 28 46 15 25 1001.7 - 0.0
31/01:30pm 34.6 27.5 1.1 12 16.8 WNW 28 41 15 22 1001.5 - 0.0
31/01:19pm 34.3 26.5 -0.6 11 17.0 NW 30 48 16 26 1001.4 - 0.0
31/01:00pm 34.2 25.6 0.5 12 16.7 NW 35 48 19 26 1001.6 - 0.0
31/12:32pm 34.4 26.9 -1.3 10 17.2 NW 28 46 15 25 1002.0 - 0.0
31/12:30pm 34.7 26.9 -0.9 10 17.4 NW 30 46 16 25 1002.0 - 0.0
31/12:00pm 34.7 28.9 0.0 11 17.2 NW 20 33 11 18 1002.5 1002.5 0.0
31/11:30am 32.7 26.4 -0.9 11 16.1 N 22 37 12 20 1003.1 - 0.0
31/11:00am 30.4 23.8 -3.1 11 15.2 N 22 39 12 21 1003.7 - 0.0
31/10:30am 30.2 25.0 0.1 14 14.4 NNE 17 26 9 14 1003.8 - 0.0
31/10:00am 28.6 23.1 0.4 16 13.5 NNE 19 35 10 19 1004.2 - 0.0
31/09:30am 28.0 22.3 -0.6 15 13.3 NNE 19 32 10 17 1004.7 - 0.0
31/09:00am 26.9 21.4 0.9 18 12.4 NNE 19 26 10 14 1005.0 1005.0 0.0
31/08:30am 26.8 21.9 1.9 20 12.0 NNE 17 26 9 14 1005.3 - 0.0
31/08:00am 24.9 19.5 1.2 21 11.2 NE 19 28 10 15 1005.5 - 0.0
31/07:30am 23.1 17.7 1.3 23 10.1 NNE 19 33 10 18 1005.6 - 0.0
31/07:00am 21.3 17.2 2.4 28 8.9 NE 13 22 7 12 1005.7 - 0.0
31/06:30am 21.4 17.1 1.2 26 9.3 NNE 13 20 7 11 1005.9 - 0.0
31/06:00am 21.6 16.5 0.8 25 9.5 NE 17 24 9 13 1006.0 1006.0 0.0
31/05:30am 18.0 14.1 3.5 38 6.8 NE 13 20 7 11 1006.0 - 0.0
31/05:00am 14.4 14.6 10.6 78 2.0 CALM 0 0 0 0 1007.1 - 0.0
31/04:30am 14.8 14.3 10.9 77 2.1 NNW 4 9 2 5 1007.4 - 0.0
31/04:00am 15.4 15.3 10.9 74 2.4 S 2 6 1 3 1007.6 - 0.0
31/03:30am 15.9 16.3 11.1 73 2.6 CALM 0 0 0 0 1007.7 - 0.0
31/03:00am 16.3 16.7 11.1 71 2.8 CALM 0 7 0 4 1008.1 1008.1 0.0
31/02:30am 16.5 16.9 11.3 71 2.8 CALM 0 0 0 0 1008.4 - 0.0
31/02:00am 16.6 16.2 11.2 70 2.9 E 4 7 2 4 1008.8 - 0.0
31/01:30am 16.9 17.2 10.8 67 3.3 CALM 0 0 0 0 1009.6 - 0.0
31/01:00am 17.4 16.6 10.9 65 3.5 SW 6 7 3 4 1010.2 - 0.0
31/12:30am 17.5 17.8 11.0 65 3.5 CALM 0 0 0 0 1010.5 - 0.0
31/12:00am 17.9 18.3 11.3 65 3.6 WNW 0 0 0 0 1010.5 1010.5 0.0
 
Date/Time
CDT
Temp
°C
App
Temp
°C
Dew
Point
Rel
Hum
%
Delta-T
°C
Wind Press
QNH
hPa
Press
MSL
hPa
Rain
since 9 am
mm
Dir
 
Spd
km/h
Gust
km/h
Spd
kts
Gust
kts
30/11:30pm 18.1 18.1 11.1 63 3.8 NE 2 7 1 4 1010.9 - 0.0
30/11:00pm 18.5 17.8 11.4 63 3.9 ENE 6 9 3 5 1011.2 - 0.0
30/10:30pm 18.7 18.8 11.4 62 4.0 ESE 2 7 1 4 1011.7 - 0.0
30/10:00pm 18.8 19.0 10.4 58 4.5 CALM 0 0 0 0 1012.2 - 0.0
30/09:30pm 19.3 17.9 9.5 53 5.2 E 7 11 4 6 1012.1 - 0.0
30/09:00pm 19.7 18.6 8.6 48 5.8 SSE 4 7 2 4 1011.9 1011.9 0.0
30/08:30pm 20.1 19.2 6.1 40 7.0 CALM 0 0 0 0 1011.8 - 0.0
30/08:00pm 20.5 19.2 7.7 43 6.6 SSW 4 6 2 3 1011.5 - 0.0
30/07:30pm 21.6 19.2 4.4 32 8.4 SSW 6 9 3 5 1011.5 - 0.0
30/07:00pm 22.8 19.9 2.7 26 9.6 SW 7 9 4 5 1011.7 - 0.0
30/06:30pm 23.4 20.4 2.1 24 10.1 WSW 7 11 4 6 1011.8 - 0.0
30/06:00pm 23.7 20.3 2.0 24 10.3 SW 9 13 5 7 1012.0 1012.0 0.0
30/05:30pm 23.3 20.0 4.6 29 9.3 WSW 11 17 6 9 1012.3 - 0.0
30/05:00pm 23.3 19.7 6.6 34 8.6 SW 15 20 8 11 1012.5 - 0.0
30/04:30pm 24.0 20.2 7.4 34 8.7 WSW 17 24 9 13 1012.5 - 0.0
30/04:00pm 25.4 21.5 8.5 34 9.1 WSW 19 24 10 13 1012.3 - 0.0
30/03:30pm 27.8 24.3 3.4 21 12.2 W 11 15 6 8 1012.4 - 0.0
30/03:00pm 25.8 22.3 1.5 20 11.6 NW 9 17 5 9 1013.1 1013.0 0.0
30/02:30pm 25.8 22.9 4.9 26 10.6 WNW 9 15 5 8 1013.7 - 0.0
30/02:00pm 24.8 21.0 2.0 22 10.9 W 11 22 6 12 1014.3 - 0.0
30/01:30pm 23.0 21.0 8.8 40 7.6 SSW 9 15 5 8 1014.5 - 0.0
30/01:00pm 23.5 21.3 10.9 45 7.0 SW 13 20 7 11 1014.9 - 0.0
30/12:30pm 22.3 19.3 10.7 47 6.4 SW 17 20 9 11 1015.3 - 0.0
30/12:00pm 23.7 21.5 9.3 40 7.8 WNW 11 19 6 10 1015.6 1015.6 0.0
30/11:30am 22.2 19.7 8.1 40 7.4 NW 11 19 6 10 1015.8 - 0.0
30/11:00am 21.1 19.5 8.8 45 6.5 NNW 7 15 4 8 1016.1 - 0.0
30/10:30am 19.9 18.7 10.3 54 5.2 N 7 11 4 6 1016.4 - 0.0
30/10:00am 18.4 17.4 10.4 59 4.3 NNE 6 15 3 8 1016.3 - 0.0
30/09:30am 17.6 16.0 10.3 62 3.9 NE 9 15 5 8 1016.2 - 0.0
30/09:00am 17.2 16.2 10.4 64 3.6 SSE 6 11 3 6 1016.8 1016.8 0.0
30/08:30am 16.5 16.0 10.9 69 3.0 SSW 4 9 2 5 1017.2 - 0.0
30/08:00am 14.9 13.8 9.9 72 2.6 SSW 6 9 3 5 1017.2 - 0.0
30/07:30am 13.2 11.4 9.5 78 1.9 S 9 13 5 7 1016.8 - 0.0
30/07:00am 11.2 10.2 9.0 86 1.1 SE 4 7 2 4 1016.3 - 0.0
30/06:30am 11.2 10.5 8.6 84 1.3 ENE 2 11 1 6 1015.8 - 0.0
30/06:00am 11.6 9.6 8.6 82 1.5 NE 9 15 5 8 1015.5 1015.5 0.0
30/05:30am 11.3 11.1 8.9 85 1.2 CALM 0 0 0 0 1016.2 - 0.0
30/05:00am 11.1 9.7 8.9 86 1.1 S 6 9 3 5 1016.3 - 0.0
30/04:30am 11.4 11.2 9.0 85 1.2 CALM 0 0 0 0 1015.8 - 0.0
30/04:00am 11.6 11.4 9.0 84 1.3 CALM 0 6 0 3 1015.5 - 0.0
30/03:30am 12.1 11.9 9.1 82 1.5 CALM 0 0 0 0 1015.6 - 0.0
30/03:00am 12.3 12.2 9.5 83 1.4 CALM 0 0 0 0 1015.7 1015.7 0.0
30/02:30am 12.5 12.5 9.8 83 1.4 CALM 0 0 0 0 1015.9 - 0.0
30/02:00am 13.0 13.1 10.1 82 1.5 CALM 0 0 0 0 1016.2 - 0.0
30/01:30am 13.5 13.2 10.0 79 1.8 NNE 2 9 1 5 1016.5 - 0.0
30/01:00am 13.6 13.6 9.9 78 1.9 CALM 0 7 0 4 1016.6 - 0.0
30/12:30am 14.2 13.0 9.7 74 2.3 ESE 6 9 3 5 1017.0 - 0.0
30/12:00am 14.4 14.5 10.2 76 2.2 CALM 0 0 0 0 1017.2 1017.2 0.0
 
Date/Time
CDT
Temp
°C
App
Temp
°C
Dew
Point
Rel
Hum
%
Delta-T
°C
Wind Press
QNH
hPa
Press
MSL
hPa
Rain
since 9 am
mm
Dir
 
Spd
km/h
Gust
km/h
Spd
kts
Gust
kts
29/11:30pm 15.2 15.4 10.5 73 2.5 CALM 0 0 0 0 1017.2 - 0.0
29/11:00pm 15.8 15.9 10.1 69 3.0 CALM 0 0 0 0 1017.3 - 0.0
29/10:30pm 15.8 14.8 10.3 70 2.9 SSW 6 9 3 5 1017.3 - 0.0
29/10:00pm 16.2 14.9 10.1 67 3.2 SW 7 13 4 7 1017.3 - 0.0
29/09:30pm 16.8 14.6 9.3 61 3.9 SW 11 17 6 9 1017.2 - 0.0
29/09:00pm 17.5 15.5 8.8 56 4.5 SSW 9 15 5 8 1017.1 1017.1 0.0
29/08:30pm 17.7 15.4 9.0 56 4.5 SW 11 17 6 9 1016.9 - 0.0
29/08:00pm 18.3 15.7 9.3 55 4.7 SW 13 20 7 11 1016.9 - 0.0
29/07:30pm 19.4 16.9 9.6 53 5.2 WSW 13 19 7 10 1016.7 - 0.0
29/07:00pm 20.1 18.1 10.3 53 5.3 WSW 11 13 6 7 1016.4 - 0.0
29/06:30pm 20.5 18.1 8.5 46 6.3 SW 11 13 6 7 1016.3 - 0.0
29/06:00pm 21.3 18.9 8.8 44 6.6 SW 11 19 6 10 1016.4 1016.4 0.0
29/05:30pm 22.6 19.8 8.4 40 7.5 SW 13 22 7 12 1016.5 - 0.0
29/05:00pm 24.1 21.3 8.6 37 8.3 WSW 13 24 7 13 1016.3 - 0.0
29/04:30pm 23.8 20.5 8.2 37 8.3 WSW 15 24 8 13 1016.5 - 0.0
29/04:00pm 24.5 21.5 7.9 34 8.8 W 13 19 7 10 1016.4 - 0.0
29/03:30pm 24.4 21.4 7.5 34 8.9 W 13 20 7 11 1016.7 - 0.0
29/03:00pm 24.0 20.9 7.4 34 8.7 WSW 13 20 7 11 1017.2 1017.2 0.0
29/02:30pm 22.6 19.7 8.2 39 7.6 WNW 13 26 7 14 1017.7 - 0.0
29/02:00pm 21.7 19.4 10.3 48 6.2 W 13 22 7 12 1018.0 - 0.0
29/01:30pm 22.2 19.2 10.5 47 6.4 WSW 17 24 9 13 1018.2 - 0.0
29/01:00pm 22.3 19.4 10.9 48 6.3 WNW 17 26 9 14 1018.4 - 0.0
29/12:30pm 22.9 21.0 8.9 40 7.5 W 9 17 5 9 1018.5 - 0.0
29/12:00pm 21.1 18.7 8.8 45 6.5 WNW 11 17 6 9 1018.9 1018.9 0.0
29/11:30am 20.1 17.7 8.6 47 6.0 NNW 11 19 6 10 1019.3 - 0.0
29/11:00am 20.1 17.4 9.1 49 5.8 N 13 22 7 12 1019.5 - 0.0
29/10:30am 19.0 16.2 8.6 51 5.4 N 13 20 7 11 1019.8 - 0.0
29/10:00am 17.6 15.3 8.9 56 4.5 NNE 11 17 6 9 1020.1 - 0.0
29/09:30am 17.4 15.4 10.2 62 3.8 N 11 19 6 10 1020.2 - 0.0
29/09:00am 17.4 15.6 10.9 65 3.5 NNE 11 15 6 8 1020.3 1020.3 0.2
29/08:30am 16.8 14.6 10.8 67 3.2 NE 13 19 7 10 1020.2 - 0.2
29/08:00am 15.2 12.8 10.0 71 2.7 NNE 13 19 7 10 1020.4 - 0.2
29/07:30am 14.0 12.7 10.1 77 2.0 NNE 7 9 4 5 1020.3 - 0.2
29/07:00am 13.6 13.7 10.1 79 1.8 CALM 0 6 0 3 1020.3 - 0.2
29/06:30am 13.2 13.2 9.9 80 1.7 CALM 0 0 0 0 1020.1 - 0.2
29/06:00am 13.1 13.2 10.0 81 1.6 CALM 0 0 0 0 1019.9 1019.9 0.2
29/05:30am 13.6 12.9 9.9 78 1.9 NE 4 7 2 4 1019.6 - 0.2
29/05:00am 13.5 13.6 10.0 79 1.8 CALM 0 0 0 0 1019.5 - 0.2
29/04:30am 13.4 13.4 9.9 79 1.8 CALM 0 0 0 0 1019.4 - 0.2
29/04:00am 13.2 13.2 9.9 80 1.7 CALM 0 0 0 0 1019.5 - 0.2
29/03:30am 12.9 12.9 9.8 81 1.6 CALM 0 0 0 0 1019.5 - 0.2
29/03:00am 12.6 12.6 9.7 82 1.5 CALM 0 0 0 0 1019.6 1019.6 0.2
29/02:30am 11.7 11.7 9.7 87 1.0 CALM 0 0 0 0 1019.7 - 0.2
29/02:00am 11.9 11.8 9.5 85 1.2 CALM 0 0 0 0 1019.8 - 0.2
29/01:30am 12.2 11.8 9.6 84 1.3 ENE 2 7 1 4 1019.9 - 0.2
29/01:00am 12.8 12.0 9.7 81 1.6 NNE 4 7 2 4 1020.1 - 0.2
29/12:30am 13.0 12.6 9.9 81 1.6 NE 2 7 1 4 1020.1 - 0.2
29/12:00am 13.3 13.0 10.2 81 1.6 ENE 2 6 1 3 1020.1 1020.1 0.2
 
Date/Time
CDT
Temp
°C
App
Temp
°C
Dew
Point
Rel
Hum
%
Delta-T
°C
Wind Press
QNH
hPa
Press
MSL
hPa
Rain
since 9 am
mm
Dir
 
Spd
km/h
Gust
km/h
Spd
kts
Gust
kts
28/11:30pm 13.6 13.4 10.5 81 1.6 E 2 7 1 4 1020.1 - 0.2
28/11:00pm 13.9 14.3 11.1 83 1.5 CALM 0 0 0 0 1020.2 - 0.2
28/10:30pm 14.4 14.4 11.0 80 1.8 SSE 2 7 1 4 1020.2 - 0.2
28/10:00pm 14.6 13.8 11.0 79 1.9 S 6 9 3 5 1020.3 - 0.2
28/09:30pm 15.1 14.2 11.4 78 2.0 S 7 11 4 6 1020.1 - 0.2

Other Formats:

Comma delimited format used in spreadsheet applications
http://www.bom.gov.au/fwo/IDS60801/IDS60801.94675.axf

JavaScript Object Notation format (JSON) in row-major order
http://www.bom.gov.au/fwo/IDS60801/IDS60801.94675.json